createdAt,value
2018-06-24T00:00:09.598Z,56.30
2018-06-24T00:05:08.226Z,56.40
2018-06-24T00:10:06.897Z,56.40
2018-06-24T00:15:05.932Z,56.40
2018-06-24T00:17:35.515Z,56.40
2018-06-24T00:30:02.029Z,56.60
2018-06-24T00:39:58.804Z,56.60
2018-06-24T00:47:26.562Z,56.70
2018-06-24T01:02:27.494Z,56.60
2018-06-24T01:12:24.339Z,56.70
2018-06-24T01:14:53.876Z,56.60
2018-06-24T01:19:54.510Z,56.70
2018-06-24T01:29:53.227Z,56.60
2018-06-24T01:39:51.680Z,56.60
2018-06-24T01:44:50.269Z,56.60
2018-06-24T01:47:19.794Z,56.60
2018-06-24T01:49:49.314Z,56.70
2018-06-24T01:52:18.845Z,56.70
2018-06-24T01:54:48.393Z,56.70
2018-06-24T01:57:17.910Z,56.70
2018-06-24T02:09:43.874Z,56.70
2018-06-24T02:17:11.589Z,56.70
2018-06-24T02:24:39.706Z,56.80
2018-06-24T02:29:38.601Z,56.80
2018-06-24T02:37:06.525Z,56.90
2018-06-24T02:47:03.341Z,56.90
2018-06-24T02:52:01.947Z,56.90
2018-06-24T02:57:00.597Z,56.90
2018-06-24T03:04:28.374Z,56.90
2018-06-24T03:11:56.440Z,56.90
2018-06-24T03:14:25.965Z,56.90
2018-06-24T03:16:55.519Z,56.90
2018-06-24T03:24:23.261Z,56.90
2018-06-24T03:29:22.080Z,56.90
2018-06-24T03:31:51.662Z,56.90
2018-06-24T03:34:21.264Z,57.00
2018-06-24T03:39:19.876Z,57.00
2018-06-24T03:44:18.537Z,56.90
2018-06-24T03:49:17.222Z,56.90
2018-06-24T03:51:46.764Z,57.00
2018-06-24T04:01:43.692Z,57.00
2018-06-24T04:04:13.229Z,57.00
2018-06-24T04:09:11.866Z,57.00
2018-06-24T04:26:42.533Z,57.10
2018-06-24T04:34:10.458Z,57.20
2018-06-24T04:39:10.229Z,57.30
2018-06-24T04:41:39.825Z,57.30
2018-06-24T04:44:09.371Z,57.30
2018-06-24T05:04:02.661Z,57.40
2018-06-24T05:09:01.267Z,57.40
2018-06-24T05:16:29.275Z,57.40
2018-06-24T05:23:57.317Z,57.60
2018-06-24T05:28:56.437Z,57.60
2018-06-24T05:41:23.081Z,57.60
2018-06-24T05:46:21.711Z,57.60
2018-06-24T05:48:51.312Z,57.60
2018-06-24T05:51:20.782Z,57.60
2018-06-24T05:56:19.972Z,57.60
2018-06-24T06:03:47.895Z,57.60
2018-06-24T06:11:15.606Z,57.60
2018-06-24T06:13:45.188Z,57.70
2018-06-24T06:26:11.060Z,57.70
2018-06-24T06:31:09.672Z,57.70
2018-06-24T06:36:08.563Z,57.80
2018-06-24T06:38:38.128Z,57.80
2018-06-24T06:41:07.672Z,57.80
2018-06-24T06:48:38.137Z,57.70
2018-06-24T06:53:38.040Z,57.60
2018-06-24T07:06:05.261Z,57.10
2018-06-24T07:11:03.945Z,56.60
2018-06-24T07:13:33.882Z,56.40
2018-06-24T07:18:32.504Z,56.00
2018-06-24T07:21:02.055Z,55.90
2018-06-24T07:28:29.871Z,55.70
2018-06-24T07:30:59.407Z,55.70
2018-06-24T07:33:29.062Z,55.50
2018-06-24T07:35:58.748Z,55.50
2018-06-24T07:38:28.541Z,55.40
2018-06-24T07:48:25.312Z,55.60
2018-06-24T07:50:54.854Z,55.60
2018-06-24T07:53:24.423Z,55.60
2018-06-24T07:58:23.462Z,55.70
2018-06-24T08:13:20.356Z,55.60
2018-06-24T08:15:49.925Z,55.60
2018-06-24T08:18:19.469Z,55.70
2018-06-24T08:23:18.115Z,55.90
2018-06-24T08:28:16.793Z,55.90
2018-06-24T08:30:46.394Z,56.10
2018-06-24T08:33:15.923Z,56.10
2018-06-24T08:35:45.489Z,56.00
2018-06-24T08:38:15.032Z,55.90
2018-06-24T08:40:44.564Z,55.80
2018-06-24T08:45:43.177Z,55.70
2018-06-24T08:50:41.803Z,55.50
2018-06-24T08:53:11.326Z,55.40
2018-06-24T08:55:40.849Z,55.40
2018-06-24T09:15:34.393Z,55.50
2018-06-24T09:20:34.242Z,55.60
2018-06-24T09:23:03.813Z,55.60
2018-06-24T09:28:02.484Z,55.50
2018-06-24T09:37:59.427Z,55.30
2018-06-24T09:40:29.080Z,55.30
2018-06-24T09:50:25.969Z,55.20
2018-06-24T09:52:55.532Z,55.30
2018-06-24T09:57:54.134Z,55.30
2018-06-24T10:07:52.571Z,55.50
2018-06-24T10:12:51.249Z,55.50
2018-06-24T10:15:20.782Z,55.50
2018-06-24T10:20:19.384Z,55.60
2018-06-24T10:25:18.019Z,55.70
2018-06-24T10:30:16.669Z,56.00
2018-06-24T10:37:44.455Z,56.20
2018-06-24T10:47:41.310Z,56.40
2018-06-24T10:50:10.873Z,56.50
2018-06-24T11:07:35.864Z,56.70
2018-06-24T11:12:34.527Z,56.60
2018-06-24T11:15:04.342Z,56.70
2018-06-24T11:20:02.972Z,56.60
2018-06-24T11:22:32.529Z,56.60
2018-06-24T11:30:01.260Z,56.60
2018-06-24T11:34:59.909Z,56.60
2018-06-24T11:37:29.476Z,56.60
2018-06-24T11:47:26.285Z,56.60
2018-06-24T12:02:21.594Z,56.50
2018-06-24T12:04:51.112Z,56.60
2018-06-24T12:12:19.260Z,56.60
2018-06-24T12:17:17.889Z,55.70
2018-06-24T12:22:19.613Z,55.90
2018-06-24T12:24:49.144Z,55.90
2018-06-24T12:39:45.135Z,56.40
2018-06-24T12:42:14.669Z,56.40
2018-06-24T12:47:13.294Z,56.40
2018-06-24T13:02:08.715Z,56.60
2018-06-24T13:07:07.278Z,56.70
2018-06-24T13:09:36.843Z,57.20
2018-06-24T13:12:06.377Z,57.60
2018-06-24T13:17:05.292Z,58.10
2018-06-24T13:19:34.893Z,58.20
2018-06-24T13:22:04.766Z,58.30
2018-06-24T13:32:01.903Z,58.20
2018-06-24T13:37:00.531Z,58.20
2018-06-24T13:44:28.287Z,58.10
2018-06-24T13:49:26.953Z,58.00
2018-06-24T13:54:25.847Z,57.90
2018-06-24T13:56:55.400Z,57.80
2018-06-24T13:59:24.965Z,57.80
2018-06-24T14:06:53.241Z,57.70
2018-06-24T14:11:52.005Z,57.70
2018-06-24T14:14:21.551Z,57.80
2018-06-24T14:21:49.335Z,57.70
2018-06-24T14:31:46.413Z,57.50
2018-06-24T14:36:45.141Z,57.50
2018-06-24T14:41:44.764Z,57.40
2018-06-24T14:46:43.388Z,57.40
2018-06-24T14:51:42.044Z,57.40
2018-06-24T14:59:10.268Z,57.40
2018-06-24T15:06:38.406Z,57.30
2018-06-24T15:14:07.616Z,57.30
2018-06-24T15:16:37.577Z,57.30
2018-06-24T15:24:05.802Z,57.30
2018-06-24T15:29:04.500Z,57.30
2018-06-24T15:36:32.579Z,57.30
2018-06-24T15:44:00.326Z,57.40
2018-06-24T15:46:29.862Z,57.30
2018-06-24T15:48:59.436Z,57.40
2018-06-24T15:51:29.766Z,57.40
2018-06-24T15:53:59.233Z,57.30
2018-06-24T16:03:56.390Z,57.30
2018-06-24T16:06:25.942Z,57.40
2018-06-24T16:13:53.708Z,56.50
2018-06-24T16:18:52.641Z,56.00
2018-06-24T16:21:22.181Z,56.10
2018-06-24T16:23:51.751Z,55.80
2018-06-24T16:26:28.015Z,55.80
2018-06-24T16:28:57.582Z,55.70
2018-06-24T16:33:56.295Z,55.70
2018-06-24T16:36:25.836Z,55.70
2018-06-24T16:46:22.718Z,56.20
2018-06-24T16:48:52.527Z,56.10
2018-06-24T16:51:22.132Z,56.10
2018-06-24T16:56:22.673Z,56.10
2018-06-24T17:06:19.585Z,56.40
2018-06-24T17:08:49.120Z,56.60
2018-06-24T17:13:49.189Z,56.70
2018-06-24T17:26:15.586Z,57.10
2018-06-24T17:33:44.164Z,57.20
2018-06-24T17:43:42.035Z,57.30
2018-06-24T17:51:12.108Z,57.50
2018-06-24T17:53:41.637Z,57.40
2018-06-24T18:06:09.140Z,57.60
2018-06-24T18:18:35.544Z,57.90
2018-06-24T18:21:05.090Z,58.00
2018-06-24T18:26:03.716Z,58.00
2018-06-24T18:33:31.550Z,58.00
2018-06-24T18:41:00.091Z,57.90
2018-06-24T18:45:58.727Z,57.90
2018-06-24T18:58:26.523Z,57.80
2018-06-24T19:00:56.093Z,57.80
2018-06-24T19:03:26.616Z,57.80
2018-06-24T19:08:25.717Z,57.90
2018-06-24T19:13:24.927Z,57.80
2018-06-24T19:20:52.940Z,57.80
2018-06-24T19:38:18.234Z,57.90
2018-06-24T19:45:45.933Z,58.00
2018-06-24T19:50:44.578Z,58.00
2018-06-24T19:53:14.198Z,58.00
2018-06-24T20:05:40.117Z,58.00
2018-06-24T20:15:36.948Z,58.10
2018-06-24T20:23:05.725Z,58.10
2018-06-24T20:28:04.356Z,58.10
2018-06-24T20:30:34.926Z,58.10
2018-06-24T20:33:04.487Z,58.00
2018-06-24T20:40:32.443Z,58.20
2018-06-24T20:45:31.219Z,58.20
2018-06-24T20:52:58.946Z,58.30
2018-06-24T20:57:57.579Z,58.40
2018-06-24T21:02:56.243Z,58.30
2018-06-24T21:05:25.763Z,58.40
2018-06-24T21:15:22.689Z,58.70
2018-06-24T21:17:52.238Z,58.60
2018-06-24T21:25:20.369Z,58.80
2018-06-24T21:30:19.001Z,58.80
2018-06-24T21:35:17.811Z,58.80
2018-06-24T21:37:47.357Z,58.80
2018-06-24T21:42:46.009Z,58.80
2018-06-24T21:47:44.728Z,58.90
2018-06-24T21:50:14.299Z,58.90
2018-06-24T21:52:43.849Z,59.00
2018-06-24T21:57:42.506Z,59.00
2018-06-24T22:02:41.235Z,59.00
2018-06-24T22:05:10.770Z,59.00
2018-06-24T22:10:09.427Z,58.90
2018-06-24T22:12:38.964Z,58.90
2018-06-24T22:17:38.145Z,58.80
2018-06-24T22:20:07.997Z,58.80
2018-06-24T22:25:06.699Z,58.80
2018-06-24T22:27:36.241Z,58.80
2018-06-24T22:42:31.991Z,58.80
2018-06-24T22:45:01.605Z,58.80
2018-06-24T22:47:31.138Z,58.90
2018-06-24T22:52:29.780Z,58.90
2018-06-24T22:54:59.301Z,59.00
2018-06-24T23:00:12.437Z,59.00
2018-06-24T23:07:42.961Z,59.00
2018-06-24T23:10:12.970Z,59.00
2018-06-24T23:17:41.470Z,59.00
2018-06-24T23:25:09.197Z,59.00
2018-06-24T23:32:37.510Z,59.10
2018-06-24T23:37:36.203Z,59.10
2018-06-24T23:40:05.814Z,59.10
2018-06-24T23:45:04.561Z,59.20
2018-06-24T23:50:03.200Z,59.20
2018-06-24T23:55:01.813Z,59.30
